Time;durP1;ratioP1;P1;durP2;ratioP2;P2;SDS_P1;SDS_P2;PMS_P1;PMS_P2;Temp;Humidity;BMP_temperature;BMP_pressure;BME280_temperature;BME280_humidity;BME280_pressure;Samples;Min_cycle;Max_cycle;Signal;HPM_P1;HPM_P2
2023/07/04 00:00:26;;;;;;;6.93;2.00;;;13.40;99.90;;;;;;5073044;28;20082;-78
2023/07/04 00:02:52;;;;;;;5.28;2.45;;;13.30;99.90;;;;;;5073149;28;20141;-76
2023/07/04 00:05:17;;;;;;;4.20;2.00;;;13.30;99.90;;;;;;5070217;28;20043;-76
2023/07/04 00:07:43;;;;;;;5.28;2.35;;;13.30;99.90;;;;;;5072562;28;20511;-78
2023/07/04 00:10:09;;;;;;;5.35;2.20;;;13.40;99.90;;;;;;5071725;28;20048;-76
2023/07/04 00:12:35;;;;;;;3.65;2.13;;;13.30;99.90;;;;;;5071660;28;20036;-76
2023/07/04 00:15:00;;;;;;;5.15;2.38;;;13.40;99.90;;;;;;5071833;28;20342;-76
2023/07/04 00:17:26;;;;;;;5.55;2.50;;;13.30;99.90;;;;;;5073429;28;20097;-76
2023/07/04 00:19:53;;;;;;;7.03;2.78;;;13.30;99.90;;;;;;5073022;28;20043;-78
2023/07/04 00:22:19;;;;;;;6.65;2.67;;;13.30;99.90;;;;;;5073117;28;20116;-75
2023/07/04 00:24:45;;;;;;;6.18;3.03;;;13.30;99.90;;;;;;5074851;28;20043;-76
2023/07/04 00:27:12;;;;;;;5.97;2.40;;;13.30;99.90;;;;;;5075275;28;20040;-76
2023/07/04 00:29:38;;;;;;;5.88;2.58;;;13.30;99.90;;;;;;5072843;28;20040;-75
2023/07/04 00:32:08;;;;;;;4.25;2.42;;;13.30;99.90;;;;;;5072674;28;20490;-76
2023/07/04 00:34:34;;;;;;;6.53;2.60;;;13.30;99.90;;;;;;5072659;28;20065;-76
2023/07/04 00:37:01;;;;;;;7.10;2.42;;;13.30;99.90;;;;;;5071636;28;20131;-74
2023/07/04 00:39:28;;;;;;;7.32;2.70;;;13.30;99.90;;;;;;5070822;28;20082;-74
2023/07/04 00:41:54;;;;;;;5.40;2.40;;;13.30;99.90;;;;;;5071148;28;20484;-75
2023/07/04 00:44:30;;;;;;;7.57;2.60;;;13.30;99.90;;;;;;5072695;28;20490;-75
2023/07/04 00:47:15;;;;;;;8.15;3.08;;;13.30;99.90;;;;;;5072501;28;20115;-76
2023/07/04 00:49:44;;;;;;;9.13;3.15;;;13.30;99.90;;;;;;5072524;28;20054;-77
2023/07/04 00:52:11;;;;;;;5.50;2.53;;;13.30;99.90;;;;;;5068468;28;20047;-76
2023/07/04 00:54:44;;;;;;;5.40;3.20;;;13.30;99.90;;;;;;5072378;28;20079;-76
2023/07/04 00:57:10;;;;;;;5.50;2.65;;;13.30;99.90;;;;;;5072522;28;20042;-76
2023/07/04 00:59:45;;;;;;;7.93;3.00;;;13.30;99.90;;;;;;5072743;28;20419;-77
2023/07/04 01:02:15;;;;;;;6.63;3.50;;;13.20;99.90;;;;;;5069274;28;20040;-79
2023/07/04 01:04:42;;;;;;;6.90;3.63;;;13.20;99.90;;;;;;5072557;28;20479;-78
2023/07/04 01:07:29;;;;;;;8.52;3.45;;;13.20;99.90;;;;;;5072620;28;20044;-78
2023/07/04 01:10:11;;;;;;;6.85;2.80;;;13.20;99.90;;;;;;5071965;28;20076;-75
2023/07/04 01:12:39;;;;;;;5.53;2.63;;;13.20;99.90;;;;;;5066775;28;20524;-76
2023/07/04 01:15:06;;;;;;;5.93;2.90;;;13.20;99.90;;;;;;5071930;28;20381;-76
2023/07/04 01:17:32;;;;;;;7.07;2.75;;;13.20;99.90;;;;;;5070176;28;20036;-76
2023/07/04 01:20:00;;;;;;;6.65;3.20;;;13.10;99.90;;;;;;5072301;28;20117;-76
2023/07/04 01:22:44;;;;;;;6.40;2.70;;;13.10;99.90;;;;;;5072195;28;20048;-77
2023/07/04 01:25:35;;;;;;;5.63;2.72;;;13.10;99.90;;;;;;5072607;28;20107;-75
2023/07/04 01:28:02;;;;;;;7.47;2.50;;;13.00;99.90;;;;;;5072061;28;20044;-76
2023/07/04 01:30:38;;;;;;;5.30;2.60;;;13.00;99.90;;;;;;5072056;28;20056;-76
2023/07/04 01:33:04;;;;;;;;;;;13.00;99.90;;;;;;5072896;28;20461;-75
2023/07/04 01:35:33;;;;;;;6.17;2.57;;;13.00;99.90;;;;;;5071387;28;19965;-76
2023/07/04 01:37:59;;;;;;;6.90;2.70;;;13.00;99.90;;;;;;5073858;28;20040;-76
2023/07/04 01:40:25;;;;;;;5.25;2.92;;;13.00;99.90;;;;;;5075974;28;20032;-76
2023/07/04 01:42:53;;;;;;;7.90;2.80;;;12.90;99.90;;;;;;5076054;28;20083;-75
2023/07/04 01:45:19;;;;;;;7.63;3.13;;;12.90;99.90;;;;;;5076177;28;20037;-76
2023/07/04 01:47:46;;;;;;;5.18;3.10;;;12.90;99.90;;;;;;5071831;28;20044;-77
2023/07/04 01:50:13;;;;;;;6.53;2.83;;;12.80;99.90;;;;;;5074464;28;20237;-77
2023/07/04 01:52:40;;;;;;;7.18;3.13;;;12.80;99.90;;;;;;5099080;28;20048;-75
2023/07/04 01:55:08;;;;;;;4.68;2.60;;;12.80;99.90;;;;;;5075946;28;20178;-75
2023/07/04 01:57:34;;;;;;;7.10;2.85;;;12.70;99.90;;;;;;5074646;28;20430;-76
2023/07/04 01:59:59;;;;;;;4.70;2.80;;;12.70;99.90;;;;;;5075561;28;20123;-76
2023/07/04 02:02:25;;;;;;;7.20;3.25;;;12.70;99.90;;;;;;5075717;28;20040;-76
2023/07/04 02:04:51;;;;;;;8.73;3.58;;;12.70;99.90;;;;;;5075789;28;20115;-76
2023/07/04 02:07:17;;;;;;;7.75;3.70;;;12.70;99.90;;;;;;5075993;28;20453;-77
2023/07/04 02:09:43;;;;;;;7.05;3.63;;;12.80;99.90;;;;;;5075755;28;20072;-76
2023/07/04 02:12:09;;;;;;;6.40;2.90;;;12.80;99.90;;;;;;5072680;28;20040;-76
2023/07/04 02:14:35;;;;;;;8.65;3.10;;;12.80;99.90;;;;;;5076144;28;20098;-76
2023/07/04 02:17:01;;;;;;;7.38;3.10;;;12.80;99.90;;;;;;5057828;28;20040;-75
2023/07/04 02:19:27;;;;;;;9.30;3.42;;;12.70;99.90;;;;;;5073917;28;20035;-75
2023/07/04 02:21:53;;;;;;;5.63;2.85;;;12.70;99.90;;;;;;5075187;28;20040;-76
2023/07/04 02:24:18;;;;;;;6.60;2.85;;;12.60;99.90;;;;;;5075796;28;20109;-76
2023/07/04 02:26:44;;;;;;;5.07;2.80;;;12.60;99.90;;;;;;5074927;28;20461;-75
2023/07/04 02:29:10;;;;;;;5.68;2.70;;;12.60;99.90;;;;;;5075133;28;20184;-75
2023/07/04 02:31:36;;;;;;;6.18;2.85;;;12.50;99.90;;;;;;5074799;28;20048;-76
2023/07/04 02:34:01;;;;;;;7.70;2.85;;;12.50;99.90;;;;;;5074192;28;20032;-76
2023/07/04 02:36:27;;;;;;;4.90;2.60;;;12.50;99.90;;;;;;5066717;28;20085;-75
2023/07/04 02:38:53;;;;;;;5.43;2.70;;;12.50;99.90;;;;;;5075046;28;20040;-78
2023/07/04 02:41:19;;;;;;;6.30;2.80;;;12.40;99.90;;;;;;5074975;28;20059;-77
2023/07/04 02:43:44;;;;;;;5.97;2.65;;;12.40;99.90;;;;;;5075238;28;20036;-77
2023/07/04 02:46:10;;;;;;;5.88;2.70;;;12.40;99.90;;;;;;5073969;28;20468;-77
2023/07/04 02:48:36;;;;;;;5.32;3.05;;;12.40;99.90;;;;;;5075251;28;20171;-76
2023/07/04 02:51:02;;;;;;;6.38;2.70;;;12.40;99.90;;;;;;5074811;28;20357;-76
2023/07/04 02:53:28;;;;;;;5.28;2.78;;;12.40;99.90;;;;;;5074808;28;20556;-75
2023/07/04 02:55:55;;;;;;;6.75;3.53;;;12.40;99.90;;;;;;5074749;28;20127;-76
2023/07/04 02:58:21;;;;;;;6.32;2.70;;;12.40;99.90;;;;;;5073553;28;20094;-77
2023/07/04 03:00:48;;;;;;;4.32;2.83;;;12.40;99.90;;;;;;5074929;28;20040;-77
2023/07/04 03:03:15;;;;;;;6.25;3.20;;;12.40;99.90;;;;;;5073559;28;20036;-76
2023/07/04 03:05:40;;;;;;;6.53;2.70;;;12.40;99.90;;;;;;5074588;28;20045;-77
2023/07/04 03:08:07;;;;;;;6.18;2.95;;;12.40;99.90;;;;;;5074634;28;20526;-77
2023/07/04 03:10:33;;;;;;;8.13;3.03;;;12.40;99.90;;;;;;5073852;28;20368;-77
2023/07/04 03:12:58;;;;;;;5.25;2.95;;;12.40;99.90;;;;;;5074098;28;20033;-76
2023/07/04 03:15:24;;;;;;;5.30;2.92;;;12.40;99.90;;;;;;5074321;28;20135;-77
2023/07/04 03:17:51;;;;;;;5.43;3.13;;;12.40;99.90;;;;;;5072471;28;20040;-77
2023/07/04 03:20:16;;;;;;;7.45;3.10;;;12.40;99.90;;;;;;5074150;28;20036;-77
2023/07/04 03:22:43;;;;;;;6.13;2.88;;;12.40;99.90;;;;;;5074384;28;20094;-76
2023/07/04 03:25:10;;;;;;;5.68;2.85;;;12.40;99.90;;;;;;5074027;28;20068;-77
2023/07/04 03:27:38;;;;;;;6.07;3.28;;;12.40;99.90;;;;;;5073793;28;20052;-77
2023/07/04 03:30:05;;;;;;;7.68;3.05;;;12.40;99.90;;;;;;5073609;28;20036;-77
2023/07/04 03:32:31;;;;;;;7.50;3.22;;;12.40;99.90;;;;;;5073123;28;20043;-78
2023/07/04 03:35:01;;;;;;;9.30;3.38;;;12.40;99.90;;;;;;5068670;28;20048;-77
2023/07/04 03:37:31;;;;;;;6.63;3.33;;;12.40;99.90;;;;;;5062295;28;20039;-78
2023/07/04 03:39:58;;;;;;;6.00;3.20;;;12.40;99.90;;;;;;5073513;28;20033;-77
2023/07/04 03:42:24;;;;;;;6.32;3.47;;;12.50;99.90;;;;;;5074212;28;20385;-77
2023/07/04 03:44:50;;;;;;;5.55;3.22;;;12.50;99.90;;;;;;5073493;28;20036;-77
2023/07/04 03:47:16;;;;;;;7.28;3.20;;;12.50;99.90;;;;;;5073703;28;20343;-77
2023/07/04 03:49:42;;;;;;;7.43;3.50;;;12.50;99.90;;;;;;5073484;28;20039;-76
2023/07/04 03:52:08;;;;;;;8.60;3.70;;;12.50;99.90;;;;;;5073683;28;20040;-78
2023/07/04 03:54:34;;;;;;;8.38;3.35;;;12.50;99.90;;;;;;5073845;28;20075;-78
2023/07/04 03:57:00;;;;;;;10.77;3.75;;;12.50;99.90;;;;;;5071768;28;20072;-78
2023/07/04 03:59:26;;;;;;;8.85;3.67;;;12.50;99.90;;;;;;5070428;28;20037;-78
2023/07/04 04:01:51;;;;;;;6.13;3.30;;;12.50;99.90;;;;;;5071514;28;20048;-78
2023/07/04 04:04:17;;;;;;;7.45;3.17;;;12.60;99.90;;;;;;5072004;28;20040;-77
2023/07/04 04:06:43;;;;;;;10.52;3.72;;;12.60;99.90;;;;;;5072919;28;20044;-77
2023/07/04 04:09:10;;;;;;;6.63;3.15;;;12.60;99.90;;;;;;5073406;28;20044;-77
2023/07/04 04:11:36;;;;;;;7.47;3.72;;;12.60;99.90;;;;;;5073180;28;20381;-77
2023/07/04 04:14:01;;;;;;;6.80;3.25;;;12.60;99.90;;;;;;5072020;28;20078;-77
2023/07/04 04:16:27;;;;;;;4.88;3.22;;;12.60;99.90;;;;;;5073224;28;20377;-77
2023/07/04 04:18:53;;;;;;;9.70;3.80;;;12.60;99.90;;;;;;5073315;28;20123;-76
2023/07/04 04:21:19;;;;;;;6.55;3.45;;;12.60;99.90;;;;;;5073243;28;20048;-76
2023/07/04 04:23:44;;;;;;;7.80;3.35;;;12.70;99.90;;;;;;5073532;28;20372;-76
2023/07/04 04:26:12;;;;;;;7.47;3.38;;;12.70;99.90;;;;;;5072758;28;20071;-75
2023/07/04 04:28:38;;;;;;;7.07;3.38;;;12.70;99.90;;;;;;5073408;28;20072;-76
2023/07/04 04:31:03;;;;;;;4.80;3.25;;;12.70;99.90;;;;;;5072633;28;20493;-76
2023/07/04 04:33:29;;;;;;;7.30;3.15;;;12.70;99.90;;;;;;5073134;28;20040;-76
2023/07/04 04:35:55;;;;;;;8.20;3.05;;;12.80;99.90;;;;;;5071562;28;20488;-76
2023/07/04 04:38:20;;;;;;;6.95;3.22;;;12.80;99.90;;;;;;5070461;28;20050;-76
2023/07/04 04:40:46;;;;;;;6.47;2.92;;;12.80;99.90;;;;;;5064479;28;20445;-78
2023/07/04 04:43:12;;;;;;;6.10;3.20;;;12.90;99.90;;;;;;5072730;28;20040;-76
2023/07/04 04:45:38;;;;;;;8.65;3.22;;;12.90;99.90;;;;;;5071536;28;20064;-76
2023/07/04 04:48:06;;;;;;;8.55;2.85;;;13.00;99.90;;;;;;5071626;28;20071;-76
2023/07/04 04:50:32;;;;;;;6.15;3.30;;;13.00;99.90;;;;;;5073270;28;20043;-76
2023/07/04 04:52:59;;;;;;;7.00;3.45;;;13.00;99.90;;;;;;5074343;28;20131;-77
2023/07/04 04:55:25;;;;;;;6.07;2.95;;;13.00;99.90;;;;;;5074951;28;20041;-76
2023/07/04 04:57:52;;;;;;;8.13;3.30;;;13.00;99.90;;;;;;5073456;28;20036;-76
2023/07/04 05:00:18;;;;;;;6.53;3.17;;;13.10;99.90;;;;;;5071663;28;20040;-76
2023/07/04 05:02:45;;;;;;;7.30;3.03;;;13.10;99.90;;;;;;5072372;28;20045;-78
2023/07/04 05:05:11;;;;;;;4.53;2.70;;;13.10;99.90;;;;;;5072786;28;20116;-76
2023/07/04 05:07:37;;;;;;;5.43;2.42;;;13.20;99.90;;;;;;5072255;28;20037;-75
2023/07/04 05:10:04;;;;;;;9.43;3.25;;;13.20;99.90;;;;;;5073810;28;20394;-76
2023/07/04 05:12:30;;;;;;;6.63;2.80;;;13.20;99.90;;;;;;5077188;28;20048;-76
2023/07/04 05:14:55;;;;;;;5.97;2.97;;;13.30;99.90;;;;;;5076776;28;20047;-75
2023/07/04 05:17:23;;;;;;;3.28;2.70;;;13.30;99.90;;;;;;5076792;28;20044;-74
2023/07/04 05:19:49;;;;;;;4.05;2.40;;;13.30;99.90;;;;;;5076529;28;20037;-77
2023/07/04 05:22:19;;;;;;;4.55;2.65;;;13.30;99.90;;;;;;5076876;28;20036;-76
2023/07/04 05:24:45;;;;;;;5.38;2.40;;;13.40;99.90;;;;;;5076601;28;20402;-77
2023/07/04 05:27:11;;;;;;;5.38;2.15;;;13.40;99.90;;;;;;5076369;28;20040;-79
2023/07/04 05:29:36;;;;;;;5.28;2.30;;;13.40;99.90;;;;;;5076250;28;20042;-77
2023/07/04 05:32:02;;;;;;;4.90;2.85;;;13.40;99.90;;;;;;5076172;28;20059;-76
2023/07/04 05:34:29;;;;;;;3.83;2.08;;;13.50;99.90;;;;;;5076358;28;20044;-76
2023/07/04 05:36:54;;;;;;;3.90;2.40;;;13.50;99.90;;;;;;5070916;28;20362;-77
2023/07/04 05:39:20;;;;;;;5.25;2.10;;;13.50;99.90;;;;;;5076230;28;20062;-75
2023/07/04 05:41:46;;;;;;;4.60;2.45;;;13.60;99.90;;;;;;5074889;28;20044;-76
2023/07/04 05:44:12;;;;;;;4.68;2.20;;;13.60;99.90;;;;;;5076147;28;20048;-76
2023/07/04 05:46:37;;;;;;;4.13;2.20;;;13.60;99.90;;;;;;5062504;28;20041;-77
2023/07/04 05:49:04;;;;;;;6.03;2.28;;;13.60;99.90;;;;;;5075764;28;20083;-78
2023/07/04 05:51:30;;;;;;;3.85;2.00;;;13.60;99.90;;;;;;5076399;28;20519;-76
2023/07/04 05:53:56;;;;;;;5.80;2.20;;;13.60;99.90;;;;;;5076228;28;20032;-77
2023/07/04 05:56:27;;;;;;;4.85;2.00;;;13.60;99.90;;;;;;5075737;28;20381;-77
2023/07/04 05:59:01;;;;;;;4.13;2.22;;;13.70;99.90;;;;;;5076029;28;20097;-76
2023/07/04 06:01:37;;;;;;;5.32;2.15;;;13.70;99.90;;;;;;5075720;28;20032;-77
2023/07/04 06:04:04;;;;;;;3.13;2.10;;;13.80;99.90;;;;;;5075708;28;20044;-77
2023/07/04 06:06:51;;;;;;;5.57;2.08;;;13.80;99.90;;;;;;5062433;28;20040;-77
2023/07/04 06:09:18;;;;;;;5.82;1.98;;;13.90;99.90;;;;;;5071285;28;20123;-75
2023/07/04 06:11:48;;;;;;;4.50;1.85;;;13.90;99.90;;;;;;5075570;28;20071;-64
2023/07/04 06:14:22;;;;;;;7.72;2.00;;;13.90;99.90;;;;;;5075550;28;20368;-64
2023/07/04 06:16:48;;;;;;;4.18;1.92;;;14.00;99.90;;;;;;5075470;28;20485;-64
2023/07/04 06:19:14;;;;;;;4.72;1.90;;;14.00;99.90;;;;;;5074815;28;20072;-65
2023/07/04 06:21:40;;;;;;;4.38;1.92;;;14.00;99.90;;;;;;5075714;28;20051;-64
2023/07/04 06:24:05;;;;;;;5.63;1.80;;;14.00;99.90;;;;;;5075517;28;20048;-64
2023/07/04 06:26:32;;;;;;;4.80;2.03;;;14.10;99.90;;;;;;5075108;28;20049;-64
2023/07/04 06:28:59;;;;;;;4.10;1.90;;;14.10;99.90;;;;;;5075410;28;20488;-64
2023/07/04 06:31:25;;;;;;;4.13;2.00;;;14.10;99.90;;;;;;5075384;28;20056;-64
2023/07/04 06:33:51;;;;;;;5.63;1.80;;;14.10;99.90;;;;;;5075295;28;20109;-64
2023/07/04 06:36:17;;;;;;;3.00;1.73;;;14.20;99.90;;;;;;5057509;28;20037;-64
2023/07/04 06:38:43;;;;;;;3.92;1.67;;;14.30;99.90;;;;;;5062999;28;20041;-64
2023/07/04 06:41:18;;;;;;;4.32;2.08;;;14.40;99.90;;;;;;5074767;28;20051;-64
2023/07/04 06:43:46;;;;;;;5.68;1.77;;;14.60;99.90;;;;;;5075133;28;20044;-64
2023/07/04 06:46:17;;;;;;;4.63;2.00;;;14.70;99.90;;;;;;5075185;28;20044;-64
2023/07/04 06:48:46;;;;;;;3.03;2.00;;;15.00;99.90;;;;;;5074713;28;20044;-64
2023/07/04 06:51:12;;;;;;;3.70;1.67;;;15.20;99.90;;;;;;5074849;28;20040;-64
2023/07/04 06:53:39;;;;;;;3.33;1.80;;;15.20;99.90;;;;;;5072785;28;20028;-64
2023/07/04 06:56:13;;;;;;;3.22;1.70;;;15.30;99.90;;;;;;5069905;28;20139;-64
2023/07/04 06:58:41;;;;;;;3.25;1.40;;;15.30;99.90;;;;;;5073984;28;20052;-63
2023/07/04 07:01:09;;;;;;;4.15;1.50;;;15.30;99.90;;;;;;5074317;28;20040;-64
2023/07/04 07:03:34;;;;;;;6.55;1.50;;;15.30;99.90;;;;;;5074655;28;20040;-64
2023/07/04 07:06:02;;;;;;;2.60;1.23;;;15.30;99.90;;;;;;5074485;28;20051;-64
2023/07/04 07:08:28;;;;;;;4.63;1.52;;;15.30;99.90;;;;;;5069310;28;20040;-64
2023/07/04 07:10:59;;;;;;;3.85;1.50;;;15.40;99.90;;;;;;5064788;28;20041;-65
2023/07/04 07:13:26;;;;;;;3.10;1.15;;;15.40;99.90;;;;;;5063771;28;20036;-65
2023/07/04 07:15:53;;;;;;;3.88;1.40;;;15.40;99.90;;;;;;5073121;28;20040;-67
2023/07/04 07:18:19;;;;;;;3.50;1.65;;;15.40;99.90;;;;;;5073302;28;20040;-65
2023/07/04 07:20:44;;;;;;;3.25;1.40;;;15.40;99.90;;;;;;5073244;28;20489;-64
2023/07/04 07:23:11;;;;;;;4.70;1.42;;;15.50;99.90;;;;;;5072204;28;20060;-65
2023/07/04 07:25:36;;;;;;;3.78;1.42;;;15.50;99.90;;;;;;5072670;28;20037;-64
2023/07/04 07:28:03;;;;;;;2.67;1.20;;;15.60;99.90;;;;;;5073349;28;20097;-64
2023/07/04 07:30:28;;;;;;;3.63;1.27;;;15.70;99.90;;;;;;5072662;28;20051;-64
2023/07/04 07:32:54;;;;;;;7.03;1.50;;;15.70;99.90;;;;;;5070333;28;20052;-65
2023/07/04 07:35:20;;;;;;;3.30;1.23;;;15.70;99.90;;;;;;5061223;28;20045;-65
2023/07/04 07:37:45;;;;;;;2.10;1.17;;;15.80;99.90;;;;;;5063437;28;20497;-66
2023/07/04 07:40:12;;;;;;;3.95;1.63;;;16.00;99.90;;;;;;5067039;28;20040;-65
2023/07/04 07:42:38;;;;;;;2.45;1.30;;;16.30;99.90;;;;;;5072620;28;20339;-64
2023/07/04 07:45:04;;;;;;;4.10;1.10;;;16.40;99.90;;;;;;5073336;28;20127;-65
2023/07/04 07:47:29;;;;;;;3.60;1.48;;;16.40;99.90;;;;;;5071904;28;20056;-64
2023/07/04 07:49:55;;;;;;;4.03;1.60;;;16.50;99.90;;;;;;5065590;28;20037;-64
2023/07/04 07:52:21;;;;;;;3.38;1.55;;;16.70;99.90;;;;;;5058918;28;20036;-64
2023/07/04 07:54:47;;;;;;;3.83;1.30;;;17.00;99.90;;;;;;5070147;28;20079;-66
2023/07/04 07:57:13;;;;;;;3.90;1.45;;;17.10;99.90;;;;;;5073374;28;20080;-66
2023/07/04 07:59:39;;;;;;;3.33;1.30;;;17.00;99.90;;;;;;5073092;28;20478;-66
2023/07/04 08:02:10;;;;;;;3.67;1.50;;;17.10;99.90;;;;;;5037728;28;20045;-66
2023/07/04 08:04:35;;;;;;;5.72;1.35;;;17.00;99.90;;;;;;5068669;28;20048;-65
2023/07/04 08:07:02;;;;;;;3.60;1.60;;;17.00;99.90;;;;;;5073147;28;20052;-66
2023/07/04 08:09:27;;;;;;;3.80;1.45;;;16.90;99.90;;;;;;5072716;28;20160;-66
2023/07/04 08:11:53;;;;;;;3.85;1.70;;;16.70;99.90;;;;;;5072911;28;20076;-64
2023/07/04 08:14:19;;;;;;;2.88;1.40;;;16.70;99.90;;;;;;5073003;28;20044;-65
2023/07/04 08:16:51;;;;;;;4.63;1.70;;;16.80;99.90;;;;;;5072371;28;20044;-65
2023/07/04 08:19:18;;;;;;;3.13;1.63;;;16.70;99.90;;;;;;5072700;28;20040;-65
2023/07/04 08:21:45;;;;;;;4.00;1.38;;;16.70;99.90;;;;;;5066533;28;20052;-64
2023/07/04 08:24:12;;;;;;;3.65;1.13;;;16.60;99.90;;;;;;5072356;28;20107;-64
2023/07/04 08:26:47;;;;;;;5.88;1.33;;;16.50;99.90;;;;;;5072510;28;20384;-65
2023/07/04 08:29:14;;;;;;;3.65;1.10;;;16.50;99.90;;;;;;5073024;28;20115;-64
2023/07/04 08:31:39;;;;;;;5.00;1.17;;;16.60;99.90;;;;;;5072400;28;20080;-64
2023/07/04 08:34:05;;;;;;;4.43;1.20;;;16.70;99.90;;;;;;5072778;28;20492;-64
2023/07/04 08:36:32;;;;;;;2.70;1.10;;;16.80;99.90;;;;;;5068085;28;20393;-64
2023/07/04 08:38:58;;;;;;;5.38;1.65;;;16.90;99.90;;;;;;5066295;28;20115;-65
2023/07/04 08:41:36;;;;;;;4.22;1.52;;;17.10;99.90;;;;;;5072114;28;20560;-64
2023/07/04 08:44:17;;;;;;;2.78;1.52;;;17.10;99.90;;;;;;5071482;28;20040;-65
2023/07/04 08:46:49;;;;;;;4.03;1.67;;;17.20;99.90;;;;;;5071778;28;20041;-64
2023/07/04 08:49:45;;;;;;;4.60;1.42;;;17.40;99.90;;;;;;5057954;28;20595;-64
2023/07/04 08:52:15;;;;;;;3.05;1.60;;;17.50;99.90;;;;;;5056127;28;20040;-64
2023/07/04 08:54:41;;;;;;;3.92;1.52;;;17.40;99.90;;;;;;5072614;28;20036;-64
2023/07/04 08:57:19;;;;;;;4.45;1.40;;;17.50;99.90;;;;;;5071280;28;20079;-65
2023/07/04 08:59:51;;;;;;;3.50;1.40;;;17.50;99.90;;;;;;5071845;28;20090;-64
2023/07/04 09:02:49;;;;;;;4.88;1.52;;;17.40;99.90;;;;;;5071860;28;20048;-66
2023/07/04 09:05:18;;;;;;;3.60;1.80;;;17.30;99.90;;;;;;5070747;28;20076;-65
2023/07/04 09:08:37;;;;;;;5.70;1.33;;;17.40;99.90;;;;;;5071581;28;20044;-64
2023/07/04 09:11:06;;;;;;;3.78;1.52;;;17.50;99.90;;;;;;5070244;28;20059;-63
2023/07/04 09:13:45;;;;;;;7.75;2.00;;;17.40;99.90;;;;;;5071745;28;20041;-63
2023/07/04 09:16:20;;;;;;;5.57;1.60;;;17.30;99.90;;;;;;5071854;28;20040;-63
2023/07/04 09:19:05;;;;;;;4.82;1.30;;;17.20;99.90;;;;;;5072459;28;20036;-64
2023/07/04 09:21:32;;;;;;;3.92;1.77;;;17.20;99.90;;;;;;5066204;28;20044;-64
2023/07/04 09:23:59;;;;;;;3.30;1.50;;;17.20;99.90;;;;;;5072429;28;20044;-63
2023/07/04 09:26:52;;;;;;;3.88;1.30;;;17.20;99.90;;;;;;5071187;28;20480;-63
2023/07/04 09:29:23;;;;;;;4.63;1.50;;;17.20;99.90;;;;;;5071202;28;20088;-63
2023/07/04 09:31:54;;;;;;;2.90;1.38;;;17.10;99.90;;;;;;5071380;28;20064;-64
2023/07/04 09:34:38;;;;;;;4.90;1.58;;;16.90;99.90;;;;;;5070452;28;20115;-64
2023/07/04 09:37:17;;;;;;;7.70;1.50;;;16.80;99.90;;;;;;5069773;28;20111;-63
2023/07/04 09:39:47;;;;;;;3.85;1.52;;;16.60;99.90;;;;;;5071004;28;20044;-63
2023/07/04 09:42:14;;;;;;;4.45;1.33;;;16.10;99.90;;;;;;5071056;28;20070;-63
2023/07/04 09:44:41;;;;;;;6.80;1.90;;;15.60;99.90;;;;;;5071609;28;20048;-63
2023/07/04 09:47:14;;;;;;;4.00;1.70;;;15.50;99.90;;;;;;5071864;28;20465;-63
2023/07/04 09:49:39;;;;;;;6.90;1.83;;;15.50;99.90;;;;;;5071715;28;20046;-63
2023/07/04 09:52:24;;;;;;;5.25;2.10;;;15.80;99.90;;;;;;5072202;28;20044;-63
2023/07/04 09:55:17;;;;;;;5.38;1.70;;;16.10;99.90;;;;;;5063705;28;20052;-64
2023/07/04 09:57:44;;;;;;;8.18;2.20;;;16.50;99.90;;;;;;5072303;28;20044;-63
2023/07/04 10:00:28;;;;;;;5.00;1.90;;;16.90;99.90;;;;;;5074588;28;20056;-64
2023/07/04 10:03:03;;;;;;;4.60;1.70;;;17.40;99.90;;;;;;5075494;28;20051;-62
2023/07/04 10:05:37;;;;;;;4.35;1.60;;;17.70;99.90;;;;;;5072999;28;20055;-63
2023/07/04 10:08:09;;;;;;;3.17;1.45;;;17.70;99.90;;;;;;5065912;28;20060;-63
2023/07/04 10:10:52;;;;;;;4.85;1.65;;;17.80;99.90;;;;;;5074798;28;20484;-63
2023/07/04 10:13:22;;;;;;;3.85;1.67;;;17.90;99.90;;;;;;5075457;28;20040;-64
2023/07/04 10:15:49;;;;;;;3.38;1.45;;;18.00;99.90;;;;;;5075230;28;20045;-63
2023/07/04 10:18:32;;;;;;;4.97;1.65;;;18.00;99.90;;;;;;5075437;28;20097;-63
2023/07/04 10:21:00;;;;;;;4.72;1.50;;;18.10;99.90;;;;;;5074983;28;20114;-63
2023/07/04 10:23:29;;;;;;;6.57;1.85;;;18.30;99.90;;;;;;5075515;28;20044;-64
2023/07/04 10:25:58;;;;;;;3.95;1.70;;;18.50;99.90;;;;;;5074929;28;20041;-63
2023/07/04 10:28:26;;;;;;;4.82;1.30;;;18.50;99.90;;;;;;5073571;28;20385;-64
2023/07/04 10:30:59;;;;;;;3.22;1.30;;;18.50;99.90;;;;;;5074758;28;20067;-63
2023/07/04 10:33:37;;;;;;;3.72;1.38;;;18.50;99.90;;;;;;5075425;28;20047;-63
2023/07/04 10:36:04;;;;;;;3.47;1.33;;;18.80;99.90;;;;;;5070147;28;20116;-64
2023/07/04 10:38:50;;;;;;;3.50;1.30;;;18.90;99.90;;;;;;5055716;28;20044;-63
2023/07/04 10:41:40;;;;;;;3.78;1.42;;;18.50;99.90;;;;;;5070093;28;20372;-63
2023/07/04 10:44:12;;;;;;;4.57;1.50;;;18.10;99.90;;;;;;5074714;28;20044;-64
2023/07/04 10:46:49;;;;;;;7.72;1.60;;;17.70;99.90;;;;;;5074757;28;20055;-64
2023/07/04 10:49:20;;;;;;;3.20;1.48;;;17.50;99.90;;;;;;5072962;28;20040;-64
2023/07/04 10:51:52;;;;;;;6.65;1.80;;;17.20;99.90;;;;;;5073970;28;20182;-64
2023/07/04 10:54:19;;;;;;;4.25;1.90;;;16.90;99.90;;;;;;5074222;28;20048;-64
2023/07/04 10:56:51;;;;;;;6.75;1.90;;;16.70;99.90;;;;;;5072335;28;20048;-64
2023/07/04 10:59:22;;;;;;;4.78;1.90;;;16.70;99.90;;;;;;5073134;28;20044;-64
2023/07/04 11:01:54;;;;;;;4.13;2.03;;;16.70;99.90;;;;;;5074345;28;20033;-65
2023/07/04 11:04:32;;;;;;;4.90;1.98;;;16.70;99.90;;;;;;5069634;28;20727;-64
2023/07/04 11:07:08;;;;;;;5.13;2.10;;;16.80;99.90;;;;;;5073089;28;20404;-63
2023/07/04 11:09:41;;;;;;;5.95;2.08;;;16.80;99.90;;;;;;5074537;28;20392;-64
2023/07/04 11:12:13;;;;;;;5.07;1.77;;;17.10;99.90;;;;;;5072342;28;20043;-64
2023/07/04 11:14:41;;;;;;;4.93;1.88;;;17.30;99.90;;;;;;5073992;28;20097;-64
2023/07/04 11:17:13;;;;;;;6.30;1.83;;;17.30;99.90;;;;;;5074221;28;20083;-64
2023/07/04 11:19:54;;;;;;;5.78;1.80;;;17.30;99.90;;;;;;5067941;28;20125;-64
2023/07/04 11:22:20;;;;;;;5.90;1.73;;;17.20;99.90;;;;;;5073383;28;20109;-64
2023/07/04 11:24:54;;;;;;;3.85;1.60;;;17.30;99.90;;;;;;5073776;28;20037;-64
2023/07/04 11:27:24;;;;;;;4.00;1.75;;;17.40;99.90;;;;;;5074041;28;20040;-66
2023/07/04 11:30:05;;;;;;;4.13;1.52;;;17.50;99.90;;;;;;5074000;28;20063;-66
2023/07/04 11:32:37;;;;;;;4.47;1.73;;;17.50;99.90;;;;;;5074024;28;20060;-66
2023/07/04 11:35:13;;;;;;;5.93;1.90;;;17.50;99.90;;;;;;5073627;28;20380;-66
2023/07/04 11:37:53;;;;;;;5.00;1.95;;;17.50;99.90;;;;;;5069506;28;20128;-65
2023/07/04 11:40:29;;;;;;;6.53;1.77;;;17.70;99.90;;;;;;5074054;28;20072;-65
2023/07/04 11:43:15;;;;;;;7.00;1.85;;;17.90;99.90;;;;;;5073575;28;20090;-66
2023/07/04 11:45:42;;;;;;;;;;;18.20;99.90;;;;;;5074311;28;20040;-66
2023/07/04 11:48:14;;;;;;;;;;;18.30;99.90;;;;;;5074040;28;20311;-65
2023/07/04 11:50:43;;;;;;;5.07;1.95;;;18.10;99.90;;;;;;5067690;28;19924;-66
2023/07/04 11:53:16;;;;;;;3.88;1.90;;;18.00;99.90;;;;;;5070050;28;20076;-65
2023/07/04 11:55:42;;;;;;;5.90;2.30;;;18.20;99.90;;;;;;5069497;28;20102;-65
2023/07/04 11:58:08;;;;;;;3.83;1.88;;;18.50;99.90;;;;;;5073286;28;20040;-65
2023/07/04 12:00:39;;;;;;;3.45;1.75;;;18.50;99.90;;;;;;5072098;28;20036;-65
2023/07/04 12:03:17;;;;;;;5.35;2.33;;;18.40;99.90;;;;;;5072240;28;20048;-65
2023/07/04 12:05:50;;;;;;;4.63;1.60;;;18.40;99.90;;;;;;5072667;28;20037;-65
2023/07/04 12:08:40;;;;;;;3.75;1.48;;;18.50;99.90;;;;;;5068084;28;20044;-65
2023/07/04 12:11:11;;;;;;;3.75;1.77;;;18.30;99.90;;;;;;5065189;28;20036;-66
2023/07/04 12:13:40;;;;;;;5.32;1.80;;;18.10;99.90;;;;;;5072079;28;20052;-65
2023/07/04 12:16:06;;;;;;;5.38;1.80;;;17.90;99.90;;;;;;5071375;28;20094;-65
2023/07/04 12:18:34;;;;;;;5.15;1.77;;;17.90;99.90;;;;;;5073169;28;20044;-66
2023/07/04 12:21:00;;;;;;;6.00;1.88;;;17.90;99.90;;;;;;5072792;28;20032;-66
2023/07/04 12:23:26;;;;;;;5.75;2.17;;;18.20;99.90;;;;;;5070283;28;20119;-65
2023/07/04 12:25:55;;;;;;;6.72;1.80;;;18.40;99.90;;;;;;5072725;28;20449;-65
2023/07/04 12:28:29;;;;;;;6.60;1.90;;;18.40;99.90;;;;;;5072773;28;20048;-64
2023/07/04 12:31:03;;;;;;;3.30;1.60;;;18.40;99.90;;;;;;5062397;28;20052;-65
2023/07/04 12:33:31;;;;;;;5.07;1.70;;;18.50;99.90;;;;;;5072496;28;20052;-65
2023/07/04 12:36:06;;;;;;;5.30;1.67;;;18.50;99.90;;;;;;5062162;28;20603;-65
2023/07/04 12:38:33;;;;;;;3.67;1.40;;;18.50;99.90;;;;;;5062865;28;20048;-65
2023/07/04 12:41:00;;;;;;;2.88;1.23;;;18.50;99.90;;;;;;5072079;28;20481;-64
2023/07/04 12:43:30;;;;;;;3.08;1.15;;;19.00;99.90;;;;;;5072325;28;20043;-65
2023/07/04 12:46:12;;;;;;;3.85;1.20;;;19.40;99.90;;;;;;5071868;28;20481;-65
2023/07/04 12:48:39;;;;;;;2.83;0.90;;;19.70;99.90;;;;;;5069137;28;20370;-65
2023/07/04 12:51:10;;;;;;;3.65;1.33;;;19.80;99.90;;;;;;5071122;28;20040;-65
2023/07/04 12:53:37;;;;;;;5.13;1.50;;;19.80;99.90;;;;;;5072732;28;20040;-65
2023/07/04 12:56:07;;;;;;;2.78;1.20;;;19.80;99.90;;;;;;5072526;28;20036;-65
2023/07/04 12:58:33;;;;;;;2.45;1.10;;;19.90;99.90;;;;;;5072534;28;20385;-65